Time;durP1;ratioP1;P1;durP2;ratioP2;P2;SDS_P1;SDS_P2;PMS_P1;PMS_P2;Temp;Humidity;BMP_temperature;BMP_pressure;BME280_temperature;BME280_humidity;BME280_pressure;Samples;Min_cycle;Max_cycle;Signal;HPM_P1;HPM_P2
2023/01/05 00:01:58;;;;;;;1.77;0.20;;;15.30;70.10;15.40;96827.00;;;;5036834;28;20683;-86
2023/01/05 00:04:25;;;;;;;0.23;0.20;;;15.30;69.90;15.40;96844.00;;;;5032674;28;20724;-84
2023/01/05 00:06:52;;;;;;;3.83;0.77;;;15.40;69.90;15.40;96839.00;;;;5036138;28;20312;-86
2023/01/05 00:09:20;;;;;;;0.20;0.20;;;15.40;70.00;15.40;96842.00;;;;5035085;28;20215;-87
2023/01/05 00:22:59;;;;;;;0.20;0.20;;;15.30;69.70;15.30;96815.00;;;;5033928;28;20255;-86
2023/01/05 00:25:29;;;;;;;0.40;0.40;;;15.30;69.70;15.30;96834.00;;;;5036244;28;20318;-86
2023/01/05 00:27:57;;;;;;;0.30;0.20;;;15.30;69.70;15.30;96825.00;;;;5034373;28;20197;-86
2023/01/05 00:30:29;;;;;;;0.10;0.10;;;15.30;69.70;15.30;96825.00;;;;5031430;28;20212;-85
2023/01/05 00:32:56;;;;;;;0.97;0.30;;;15.30;69.70;15.30;96822.00;;;;5031557;28;20188;-86
2023/01/05 00:35:24;;;;;;;0.77;0.40;;;15.30;69.70;15.30;96816.00;;;;5031956;28;20752;-86
2023/01/05 00:37:51;;;;;;;0.37;0.20;;;15.30;69.80;15.20;96816.00;;;;5035365;28;20250;-86
2023/01/05 00:40:21;;;;;;;1.17;0.23;;;15.30;69.90;15.20;96800.00;;;;5033558;28;20284;-86
2023/01/05 00:42:48;;;;;;;0.70;0.30;;;15.20;69.80;15.20;96806.00;;;;5034189;28;20297;-86
2023/01/05 00:45:18;;;;;;;0.30;0.30;;;15.20;69.90;15.20;96815.00;;;;5034422;28;20232;-86
2023/01/05 00:47:46;;;;;;;0.20;0.20;;;15.20;69.90;15.20;96808.00;;;;5032570;28;20206;-86
2023/01/05 00:50:16;;;;;;;0.20;0.20;;;15.20;69.90;15.20;96821.00;;;;5033000;28;20201;-85
2023/01/05 00:52:45;;;;;;;0.80;0.20;;;15.20;69.90;15.30;96803.00;;;;5034051;28;20616;-86
2023/01/05 00:55:12;;;;;;;1.30;0.20;;;15.20;70.00;15.30;96805.00;;;;5032750;28;20667;-86
2023/01/05 00:57:40;;;;;;;9.40;1.03;;;15.20;70.10;15.30;96809.00;;;;5034149;28;20315;-85
2023/01/05 01:00:13;;;;;;;0.20;0.20;;;15.20;70.20;15.30;96804.00;;;;5033482;28;20228;-85
2023/01/05 01:02:40;;;;;;;0.60;0.40;;;15.20;70.20;15.30;96805.00;;;;5033481;28;20279;-85
2023/01/05 01:05:10;;;;;;;0.53;0.17;;;15.20;70.20;15.30;96804.00;;;;5035033;28;20336;-86
2023/01/05 01:07:37;;;;;;;0.30;0.20;;;15.20;70.00;15.30;96814.00;;;;5031820;28;20289;-85
2023/01/05 01:10:06;;;;;;;0.20;0.20;;;15.20;70.80;15.20;96807.00;;;;5033373;28;20739;-85
2023/01/05 01:12:33;;;;;;;0.20;0.17;;;15.20;70.10;15.20;96801.00;;;;5033183;28;20879;-85
2023/01/05 01:15:01;;;;;;;0.30;0.20;;;15.20;70.10;15.20;96791.00;;;;5033652;28;20260;-86
2023/01/05 01:17:31;;;;;;;0.20;0.17;;;15.20;70.20;15.20;96800.00;;;;5033707;28;20288;-86
2023/01/05 01:19:58;;;;;;;1.60;0.20;;;15.20;70.20;15.20;96805.00;;;;5037108;28;20234;-86
2023/01/05 01:22:27;;;;;;;0.20;0.20;;;15.20;70.20;15.20;96804.00;;;;5035712;28;20237;-86
2023/01/05 01:24:54;;;;;;;0.43;0.20;;;15.20;70.20;15.20;96790.00;;;;5036629;28;20221;-86
2023/01/05 01:27:21;;;;;;;3.43;0.40;;;15.20;70.30;15.20;96789.00;;;;5038055;28;20564;-86
2023/01/05 01:29:48;;;;;;;1.83;0.40;;;15.20;70.40;15.20;96796.00;;;;5039219;28;20212;-85
2023/01/05 01:32:15;;;;;;;1.07;0.20;;;15.20;70.50;15.20;96793.00;;;;5036503;28;20611;-85
2023/01/05 01:34:42;;;;;;;6.63;0.50;;;15.20;70.50;15.20;96802.00;;;;5037049;28;20311;-86
2023/01/05 01:37:10;;;;;;;0.30;0.20;;;15.10;70.50;15.20;96789.00;;;;5035963;28;20228;-86
2023/01/05 01:39:38;;;;;;;0.63;0.30;;;15.10;70.50;15.10;96785.00;;;;5036969;28;20589;-85
2023/01/05 01:42:07;;;;;;;0.90;0.30;;;15.10;70.60;15.20;96788.00;;;;5036882;28;20288;-85
2023/01/05 01:45:00;;;;;;;0.10;0.10;;;15.10;70.70;15.20;96777.00;;;;5038619;28;20234;-85
2023/01/05 01:47:39;;;;;;;0.20;0.20;;;15.20;70.50;15.20;96780.00;;;;5016723;28;20298;-84
2023/01/05 01:50:15;;;;;;;0.30;0.30;;;15.20;70.90;15.20;96782.00;;;;5038379;28;20616;-86
2023/01/05 01:52:45;;;;;;;2.07;0.40;;;15.20;70.90;15.20;96768.00;;;;5036119;28;20655;-86
2023/01/05 01:55:14;;;;;;;0.40;0.20;;;15.20;71.80;15.20;96756.00;;;;5033933;28;20656;-87
2023/01/05 01:57:43;;;;;;;0.20;0.20;;;15.20;71.10;15.20;96769.00;;;;5033649;28;20215;-86
2023/01/05 02:00:13;;;;;;;0.20;0.20;;;15.20;71.10;15.20;96758.00;;;;5035181;28;20215;-86
2023/01/05 02:02:41;;;;;;;0.20;0.20;;;15.20;71.10;15.20;96768.00;;;;5036345;28;20207;-86
2023/01/05 02:05:12;;;;;;;2.43;0.10;;;15.20;71.10;15.20;96764.00;;;;5036518;28;20212;-86
2023/01/05 02:07:45;;;;;;;1.30;0.20;;;15.20;71.10;15.20;96740.00;;;;5037141;28;20292;-86
2023/01/05 02:10:18;;;;;;;0.47;0.27;;;15.20;71.80;15.20;96730.00;;;;5035195;28;20225;-85
2023/01/05 02:13:04;;;;;;;0.77;0.13;;;15.20;71.00;15.20;96729.00;;;;5035670;28;20198;-85
2023/01/05 02:15:45;;;;;;;1.90;0.40;;;15.20;70.90;15.20;96719.00;;;;5036022;28;20681;-86
2023/01/05 02:18:36;;;;;;;0.73;0.20;;;15.20;71.10;15.10;96711.00;;;;5036994;28;20291;-86
2023/01/05 02:21:24;;;;;;;0.97;0.23;;;15.20;71.00;15.10;96714.00;;;;5036966;28;20305;-86
2023/01/05 02:24:40;;;;;;;0.17;0.17;;;15.20;71.00;15.10;96710.00;;;;5037338;28;20292;-85
2023/01/05 02:27:32;;;;;;;0.17;0.17;;;15.20;71.00;15.10;96706.00;;;;5035301;28;20217;-86
2023/01/05 02:30:58;;;;;;;0.10;0.10;;;15.20;71.10;15.10;96701.00;;;;5034067;28;20201;-86
2023/01/05 02:33:38;;;;;;;0.20;0.20;;;15.20;71.10;15.10;96685.00;;;;5020848;28;20548;-86
2023/01/05 02:36:18;;;;;;;0.10;0.10;;;15.20;71.30;15.20;96697.00;;;;5038158;28;20209;-85
2023/01/05 02:38:53;;;;;;;0.50;0.20;;;15.20;71.40;15.20;96696.00;;;;5036947;28;20201;-86
2023/01/05 02:41:29;;;;;;;0.10;0.10;;;15.20;71.40;15.20;96686.00;;;;5036700;28;20203;-85
2023/01/05 02:43:57;;;;;;;1.30;0.20;;;15.20;71.50;15.20;96680.00;;;;5035234;28;20221;-85
2023/01/05 02:46:25;;;;;;;0.90;0.20;;;15.20;71.70;15.20;96685.00;;;;5037934;28;20213;-85
2023/01/05 02:48:58;;;;;;;2.30;0.30;;;15.20;71.60;15.30;96688.00;;;;5037167;28;20205;-85
2023/01/05 02:51:31;;;;;;;1.20;0.17;;;15.20;71.60;15.30;96679.00;;;;5037832;28;20229;-85
2023/01/05 02:54:06;;;;;;;0.53;0.30;;;15.20;71.60;15.30;96672.00;;;;5036086;28;20299;-85
2023/01/05 02:56:41;;;;;;;0.60;0.30;;;15.30;71.60;15.30;96661.00;;;;5037048;28;20211;-86
2023/01/05 02:59:15;;;;;;;0.10;0.10;;;15.30;71.50;15.30;96660.00;;;;5036988;28;20247;-86
2023/01/05 03:01:51;;;;;;;0.27;0.10;;;15.30;71.50;15.30;96662.00;;;;5036771;28;20293;-86
2023/01/05 03:04:24;;;;;;;0.10;0.10;;;15.30;71.40;15.30;96656.00;;;;5036171;28;20347;-86
2023/01/05 03:06:56;;;;;;;0.13;0.10;;;15.30;71.50;15.30;96659.00;;;;5035611;28;20215;-86
2023/01/05 03:09:28;;;;;;;0.53;0.10;;;15.30;71.60;15.30;96672.00;;;;5037435;28;20209;-86
2023/01/05 03:14:59;;;;;;;0.10;0.10;;;15.30;71.80;15.30;96657.00;;;;5037762;28;20228;-86
2023/01/05 03:17:33;;;;;;;0.00;0.00;;;15.30;71.90;15.30;96657.00;;;;5037641;28;20841;-86
2023/01/05 03:20:02;;;;;;;4.07;0.20;;;15.30;72.00;15.30;96654.00;;;;5036351;28;20303;-86
2023/01/05 03:36:59;;;;;;;0.10;0.10;;;15.30;72.40;15.20;96662.00;;;;5035373;28;20282;-85
2023/01/05 03:39:29;;;;;;;0.20;0.20;;;15.30;72.50;15.30;96656.00;;;;5037169;28;20197;-85
2023/01/05 03:41:57;;;;;;;0.20;0.20;;;15.30;72.50;15.30;96654.00;;;;5034775;28;20280;-86
2023/01/05 03:44:24;;;;;;;0.10;0.10;;;15.30;72.60;15.30;96663.00;;;;5034251;28;20308;-86
2023/01/05 03:46:52;;;;;;;0.10;0.10;;;15.30;72.70;15.30;96656.00;;;;5040159;28;20201;-86
2023/01/05 03:49:20;;;;;;;0.20;0.10;;;15.30;72.70;15.30;96651.00;;;;5040970;28;20283;-86
2023/01/05 03:51:47;;;;;;;0.10;0.10;;;15.30;72.70;15.40;96638.00;;;;5041012;28;20255;-86
2023/01/05 03:54:14;;;;;;;0.10;0.10;;;15.30;72.70;15.40;96650.00;;;;5039818;28;20303;-86
2023/01/05 03:56:42;;;;;;;1.00;0.10;;;15.30;72.70;15.40;96648.00;;;;5040196;28;20208;-86
2023/01/05 03:59:09;;;;;;;1.00;0.10;;;15.30;72.70;15.40;96647.00;;;;5041266;28;20281;-86
2023/01/05 04:01:36;;;;;;;0.10;0.10;;;15.30;72.60;15.40;96646.00;;;;5041671;28;20313;-86
2023/01/05 04:04:03;;;;;;;0.23;0.10;;;15.40;72.80;15.40;96643.00;;;;5035193;28;20284;-86
2023/01/05 04:06:32;;;;;;;0.10;0.10;;;15.40;72.80;15.40;96643.00;;;;5036477;28;20538;-86
2023/01/05 04:08:59;;;;;;;1.33;0.10;;;15.40;72.80;15.50;96652.00;;;;5034943;28;20288;-86
2023/01/05 04:11:26;;;;;;;0.20;0.20;;;15.40;72.80;15.50;96653.00;;;;5036002;28;20193;-86
2023/01/05 04:13:54;;;;;;;0.10;0.07;;;15.40;73.50;15.50;96648.00;;;;5036074;28;20232;-86
2023/01/05 04:16:21;;;;;;;0.20;0.20;;;15.40;72.80;15.50;96655.00;;;;5036712;28;20216;-86
2023/01/05 04:18:49;;;;;;;0.83;0.20;;;15.40;72.80;15.50;96650.00;;;;5034907;28;20236;-86
2023/01/05 04:21:16;;;;;;;0.63;0.10;;;15.40;72.70;15.40;96643.00;;;;5035109;28;20295;-86
2023/01/05 04:23:45;;;;;;;0.17;0.10;;;15.40;72.80;15.40;96637.00;;;;5033796;28;20235;-86
2023/01/05 04:26:12;;;;;;;0.10;0.10;;;15.40;72.70;15.40;96634.00;;;;5035947;28;20308;-86
2023/01/05 04:28:39;;;;;;;1.30;0.20;;;15.40;72.80;15.40;96631.00;;;;5035678;28;20216;-86
2023/01/05 04:31:06;;;;;;;0.10;0.10;;;15.40;72.80;15.40;96616.00;;;;5035802;28;20231;-84
2023/01/05 04:33:33;;;;;;;0.20;0.20;;;15.40;72.70;15.40;96624.00;;;;5036061;28;20280;-85
2023/01/05 04:36:00;;;;;;;0.30;0.30;;;15.40;72.70;15.40;96614.00;;;;5035523;28;20706;-86
2023/01/05 04:38:27;;;;;;;2.23;0.40;;;15.40;72.50;15.30;96603.00;;;;5035957;28;20292;-86
2023/01/05 04:40:56;;;;;;;0.20;0.10;;;15.30;72.60;15.30;96603.00;;;;5034902;28;20284;-86
2023/01/05 04:43:23;;;;;;;0.23;0.23;;;15.30;72.50;15.30;96602.00;;;;5036232;28;20287;-86
2023/01/05 04:45:50;;;;;;;0.20;0.20;;;15.30;72.50;15.20;96614.00;;;;5037015;28;20762;-86
2023/01/05 04:48:17;;;;;;;4.50;0.50;;;15.30;72.50;15.20;96611.00;;;;5034891;28;20613;-85
2023/01/05 04:50:45;;;;;;;0.10;0.10;;;15.30;72.60;15.20;96623.00;;;;5036764;28;20623;-86
2023/01/05 04:53:12;;;;;;;0.37;0.10;;;15.20;72.50;15.20;96618.00;;;;5038357;28;20288;-86
2023/01/05 04:55:39;;;;;;;1.00;0.20;;;15.20;72.60;15.20;96621.00;;;;5039089;28;20710;-86
2023/01/05 04:58:07;;;;;;;9.80;0.50;;;15.20;72.70;15.20;96611.00;;;;5039747;28;20209;-85
2023/01/05 05:00:36;;;;;;;0.20;0.10;;;15.20;72.90;15.20;96621.00;;;;5036980;28;20201;-86
2023/01/05 05:03:04;;;;;;;4.93;0.40;;;15.20;72.80;15.20;96615.00;;;;5038105;28;20310;-86
2023/01/05 05:05:31;;;;;;;0.10;0.10;;;15.20;72.90;15.30;96606.00;;;;5037798;28;20304;-86
2023/01/05 05:07:58;;;;;;;0.27;0.10;;;15.20;72.90;15.30;96607.00;;;;5039579;28;20594;-86
2023/01/05 05:10:25;;;;;;;0.50;0.30;;;15.20;72.90;15.30;96593.00;;;;5040483;28;20205;-85
2023/01/05 05:12:52;;;;;;;0.30;0.30;;;15.30;72.90;15.30;96611.00;;;;5038487;28;20284;-85
2023/01/05 05:15:21;;;;;;;0.10;0.10;;;15.30;73.00;15.40;96611.00;;;;5036425;28;20232;-84
2023/01/05 05:17:48;;;;;;;0.10;0.07;;;15.30;73.00;15.40;96612.00;;;;5036618;28;20407;-85
2023/01/05 05:20:16;;;;;;;5.17;0.40;;;15.30;72.90;15.40;96626.00;;;;5039264;28;20583;-86
2023/01/05 05:22:43;;;;;;;0.10;0.10;;;15.30;72.90;15.40;96626.00;;;;5036212;28;20740;-86
2023/01/05 05:25:10;;;;;;;1.70;0.20;;;15.30;72.90;15.40;96624.00;;;;5038128;28;20311;-86
2023/01/05 05:27:37;;;;;;;0.10;0.10;;;15.50;73.00;15.50;96636.00;;;;5040489;28;20246;-86
2023/01/05 05:30:06;;;;;;;0.20;0.10;;;15.40;72.80;15.50;96650.00;;;;5037263;28;20287;-86
2023/01/05 05:32:35;;;;;;;0.10;0.10;;;15.40;72.80;15.50;96649.00;;;;5040152;28;20221;-87
2023/01/05 05:35:02;;;;;;;0.40;0.20;;;15.40;72.90;15.50;96639.00;;;;5037307;28;20755;-86
2023/01/05 05:37:29;;;;;;;0.20;0.10;;;15.40;72.90;15.50;96643.00;;;;5038895;28;20300;-86
2023/01/05 05:39:56;;;;;;;1.80;0.30;;;15.40;73.10;15.40;96640.00;;;;5036685;28;20288;-86
2023/01/05 05:42:23;;;;;;;0.10;0.10;;;15.40;73.20;15.40;96657.00;;;;5041015;28;20244;-86
2023/01/05 05:44:51;;;;;;;0.10;0.10;;;15.40;73.10;15.40;96653.00;;;;5036549;28;20240;-86
2023/01/05 05:47:18;;;;;;;1.03;0.10;;;15.40;73.10;15.40;96664.00;;;;5038796;28;20208;-86
2023/01/05 05:49:46;;;;;;;0.00;0.00;;;15.40;73.10;15.40;96664.00;;;;5038920;28;20256;-86
2023/01/05 05:52:14;;;;;;;0.07;0.07;;;15.40;73.00;15.40;96664.00;;;;5039345;28;20209;-86
2023/01/05 05:54:41;;;;;;;0.20;0.17;;;15.40;73.10;15.40;96672.00;;;;5038624;28;20304;-86
2023/01/05 05:57:08;;;;;;;3.23;0.30;;;15.40;73.20;15.40;96667.00;;;;5038660;28;20225;-86
2023/01/05 05:59:35;;;;;;;0.53;0.10;;;15.40;73.30;15.40;96666.00;;;;5037471;28;20254;-86
2023/01/05 06:02:02;;;;;;;2.63;0.20;;;15.40;73.20;15.40;96667.00;;;;5039515;28;20216;-86
2023/01/05 06:04:30;;;;;;;0.00;0.00;;;15.40;73.10;15.40;96664.00;;;;5037389;28;20293;-86
2023/01/05 06:06:58;;;;;;;0.20;0.10;;;15.40;73.20;15.50;96662.00;;;;5039503;28;20205;-86
2023/01/05 06:09:25;;;;;;;0.00;0.00;;;15.40;73.40;15.50;96664.00;;;;5036346;28;20375;-86
2023/01/05 06:11:52;;;;;;;0.10;0.10;;;15.40;73.30;15.50;96674.00;;;;5038775;28;20198;-86
2023/01/05 06:14:20;;;;;;;0.10;0.10;;;15.40;73.30;15.50;96676.00;;;;5038568;28;20307;-86
2023/01/05 06:16:47;;;;;;;0.30;0.30;;;15.40;73.10;15.50;96670.00;;;;5035733;28;20217;-86
2023/01/05 06:19:14;;;;;;;0.33;0.30;;;15.40;73.10;15.50;96664.00;;;;5035866;28;20259;-84
2023/01/05 06:21:41;;;;;;;0.43;0.20;;;15.40;73.10;15.50;96672.00;;;;5037416;28;20276;-86
2023/01/05 06:24:12;;;;;;;1.07;0.10;;;15.40;73.10;15.50;96675.00;;;;5035807;28;20312;-86
2023/01/05 06:26:39;;;;;;;0.10;0.10;;;15.50;73.10;15.50;96681.00;;;;5036539;28;20237;-86
2023/01/05 06:29:06;;;;;;;3.97;0.80;;;15.50;73.90;15.50;96668.00;;;;5036294;28;20201;-86
2023/01/05 06:31:33;;;;;;;0.23;0.23;;;15.50;73.30;15.60;96674.00;;;;5036030;28;20224;-86
2023/01/05 06:34:01;;;;;;;1.27;0.93;;;15.50;73.40;15.50;96687.00;;;;5038094;28;20225;-86
2023/01/05 06:36:28;;;;;;;0.50;0.50;;;15.50;73.40;15.50;96692.00;;;;5036245;28;20319;-86
2023/01/05 06:38:55;;;;;;;0.30;0.30;;;15.50;73.50;15.50;96688.00;;;;5037449;28;20224;-86
2023/01/05 06:41:25;;;;;;;0.30;0.30;;;15.50;73.60;15.50;96697.00;;;;5037181;28;20260;-85
2023/01/05 06:43:52;;;;;;;0.20;0.20;;;15.50;73.70;15.40;96677.00;;;;5037643;28;20288;-86
2023/01/05 06:46:19;;;;;;;0.70;0.20;;;15.40;73.70;15.40;96682.00;;;;5035446;28;20201;-86
2023/01/05 06:48:46;;;;;;;0.10;0.10;;;15.40;73.80;15.40;96687.00;;;;5036371;28;20217;-86
2023/01/05 06:51:13;;;;;;;0.10;0.10;;;15.40;74.00;15.30;96680.00;;;;5037100;28;20280;-85
2023/01/05 06:53:40;;;;;;;0.20;0.20;;;15.40;74.10;15.30;96690.00;;;;5036166;28;20236;-86
2023/01/05 06:56:08;;;;;;;7.87;3.90;;;15.30;74.00;15.30;96686.00;;;;5036430;28;20225;-86
2023/01/05 06:58:36;;;;;;;0.67;0.67;;;15.30;74.10;15.20;96679.00;;;;5037361;28;20293;-86
2023/01/05 07:01:04;;;;;;;0.87;0.40;;;15.30;74.10;15.20;96676.00;;;;5036386;28;20686;-86
2023/01/05 07:03:31;;;;;;;1.83;0.37;;;15.20;74.20;15.20;96673.00;;;;5038053;28;20279;-86
2023/01/05 07:05:58;;;;;;;1.30;0.40;;;15.20;74.50;15.10;96691.00;;;;5035532;28;20335;-85
2023/01/05 07:08:25;;;;;;;0.20;0.20;;;15.20;74.70;15.10;96688.00;;;;5037521;28;20197;-86
2023/01/05 07:10:52;;;;;;;4.93;0.57;;;15.20;74.70;15.00;96700.00;;;;5036515;28;20218;-86
2023/01/05 07:13:20;;;;;;;4.83;0.53;;;15.10;74.80;15.00;96708.00;;;;5035753;28;20197;-86
2023/01/05 07:15:48;;;;;;;0.20;0.20;;;15.10;75.00;15.00;96718.00;;;;5036677;28;20237;-85
2023/01/05 07:18:16;;;;;;;0.23;0.23;;;15.10;75.00;15.00;96718.00;;;;5036845;28;20300;-86
2023/01/05 07:20:43;;;;;;;0.30;0.30;;;15.10;75.10;15.00;96715.00;;;;5037223;28;20204;-85
2023/01/05 07:23:10;;;;;;;0.97;0.17;;;15.00;75.10;15.00;96722.00;;;;5036757;28;20192;-86
2023/01/05 07:25:37;;;;;;;0.30;0.30;;;15.00;75.20;15.00;96713.00;;;;5035179;28;20693;-86
2023/01/05 07:28:04;;;;;;;0.47;0.20;;;15.00;75.30;15.00;96712.00;;;;5035995;28;20629;-85
2023/01/05 07:30:32;;;;;;;0.30;0.30;;;15.00;75.40;15.10;96718.00;;;;5034126;28;20300;-86
2023/01/05 07:33:01;;;;;;;0.30;0.30;;;15.00;75.40;15.10;96725.00;;;;5036970;28;20303;-86
2023/01/05 07:35:28;;;;;;;0.33;0.33;;;15.00;75.40;15.10;96709.00;;;;5033907;28;20696;-86
2023/01/05 07:37:56;;;;;;;0.30;0.30;;;15.00;75.40;15.10;96716.00;;;;5035129;28;20267;-86
2023/01/05 07:40:24;;;;;;;0.40;0.40;;;15.10;75.40;15.20;96724.00;;;;5035457;28;20294;-86
2023/01/05 07:42:51;;;;;;;4.37;0.40;;;15.10;75.40;15.20;96740.00;;;;5034706;28;20237;-85
2023/01/05 07:45:19;;;;;;;0.10;0.10;;;15.10;75.40;15.20;96747.00;;;;5036283;28;20299;-86
2023/01/05 07:47:48;;;;;;;0.77;0.17;;;15.10;75.50;15.20;96731.00;;;;5037743;28;20291;-86
2023/01/05 07:50:16;;;;;;;0.87;0.17;;;15.20;75.40;15.30;96744.00;;;;5035674;28;20224;-86
2023/01/05 07:52:44;;;;;;;0.30;0.20;;;15.20;75.40;15.30;96760.00;;;;5036795;28;20201;-86
2023/01/05 07:55:11;;;;;;;4.60;0.47;;;15.20;75.40;15.30;96759.00;;;;5033800;28;20598;-88
2023/01/05 07:57:38;;;;;;;0.20;0.20;;;15.20;75.60;15.30;96759.00;;;;5040423;28;20244;-87
2023/01/05 08:00:07;;;;;;;0.30;0.30;;;15.20;75.50;15.30;96754.00;;;;5036457;28;20266;-88
2023/01/05 08:02:34;;;;;;;0.20;0.20;;;15.20;75.50;15.30;96768.00;;;;5032898;28;20266;-88
2023/01/05 08:05:01;;;;;;;0.10;0.10;;;15.20;75.40;15.40;96776.00;;;;5033686;28;20236;-88
2023/01/05 08:07:30;;;;;;;0.30;0.30;;;15.30;75.50;15.40;96775.00;;;;5033062;28;20212;-87
2023/01/05 08:15:23;;;;;;;0.10;0.10;;;15.30;75.70;15.40;96779.00;;;;5032851;28;20838;-89
2023/01/05 08:17:50;;;;;;;2.23;0.50;;;15.30;75.80;15.30;96782.00;;;;5034664;28;20798;-89
2023/01/05 08:20:17;;;;;;;2.13;0.30;;;15.30;76.00;15.30;96787.00;;;;5042758;28;20209;-89
2023/01/05 08:22:50;;;;;;;3.63;0.40;;;15.30;76.20;15.20;96798.00;;;;5046321;28;20228;-88
2023/01/05 08:25:18;;;;;;;0.20;0.20;;;15.20;76.40;15.20;96803.00;;;;5042714;28;20228;-88
2023/01/05 08:27:45;;;;;;;0.13;0.13;;;15.20;76.50;15.20;96797.00;;;;5043759;28;20271;-88
2023/01/05 08:30:14;;;;;;;0.30;0.30;;;15.20;76.80;15.10;96807.00;;;;5046126;28;20638;-88
2023/01/05 08:32:43;;;;;;;0.20;0.20;;;15.20;77.00;15.10;96816.00;;;;5042752;28;20201;-88
2023/01/05 08:35:11;;;;;;;2.10;0.23;;;15.10;77.40;15.00;96807.00;;;;5038064;28;20343;-89
2023/01/05 08:37:38;;;;;;;0.30;0.30;;;15.10;77.50;15.00;96819.00;;;;5038060;28;20248;-88
2023/01/05 08:40:09;;;;;;;10.17;1.20;;;15.00;77.70;15.00;96825.00;;;;5037457;28;20197;-88
2023/01/05 08:42:37;;;;;;;1.10;0.40;;;15.00;77.90;15.00;96830.00;;;;5027700;28;20232;-87
2023/01/05 08:45:05;;;;;;;0.20;0.20;;;15.00;78.00;14.90;96840.00;;;;5035370;28;20221;-88
2023/01/05 08:47:32;;;;;;;0.30;0.30;;;15.00;77.90;14.90;96839.00;;;;5038692;28;20215;-88
2023/01/05 08:49:59;;;;;;;0.40;0.20;;;14.90;78.10;14.90;96840.00;;;;5041396;28;20239;-88
2023/01/05 08:52:26;;;;;;;0.50;0.50;;;14.90;78.30;14.90;96846.00;;;;5039401;28;20205;-87
2023/01/05 08:54:53;;;;;;;4.47;0.83;;;14.90;78.30;14.90;96854.00;;;;5036822;28;20220;-88
2023/01/05 08:57:22;;;;;;;5.90;1.17;;;14.90;78.50;14.90;96855.00;;;;5038313;28;20358;-88
2023/01/05 08:59:49;;;;;;;2.07;1.30;;;14.80;78.80;14.90;96862.00;;;;5037335;28;20201;-87
2023/01/05 09:02:16;;;;;;;0.93;0.73;;;14.80;79.00;14.90;96855.00;;;;5036681;28;20204;-88
2023/01/05 09:04:43;;;;;;;2.97;0.73;;;14.80;79.00;14.90;96853.00;;;;5039004;28;20651;-86
2023/01/05 09:07:10;;;;;;;1.33;0.70;;;14.80;79.10;14.80;96851.00;;;;5037141;28;20198;-86
2023/01/05 09:09:38;;;;;;;1.03;0.60;;;14.80;79.20;14.80;96860.00;;;;5037317;28;20607;-87
2023/01/05 09:12:07;;;;;;;3.30;1.30;;;14.80;79.40;14.80;96864.00;;;;5038902;28;20201;-87
2023/01/05 09:14:35;;;;;;;5.27;1.63;;;14.80;79.40;14.90;96850.00;;;;5035876;28;20217;-86
2023/01/05 09:17:02;;;;;;;2.13;0.70;;;14.80;79.50;14.90;96872.00;;;;5037568;28;20329;-86
2023/01/05 09:19:30;;;;;;;2.13;0.50;;;14.80;79.50;14.90;96880.00;;;;5036757;28;20219;-87
2023/01/05 09:21:57;;;;;;;1.67;0.50;;;14.80;79.50;14.90;96880.00;;;;5037582;28;20204;-88
2023/01/05 09:24:24;;;;;;;0.20;0.20;;;14.80;79.50;14.90;96884.00;;;;5035274;28;20714;-88
2023/01/05 09:26:51;;;;;;;0.17;0.17;;;14.80;79.50;14.90;96893.00;;;;5038743;28;20742;-87
2023/01/05 09:29:19;;;;;;;1.53;0.50;;;14.80;79.40;14.90;96892.00;;;;5039779;28;20315;-87
2023/01/05 09:31:47;;;;;;;0.30;0.30;;;14.80;79.40;14.90;96887.00;;;;5038274;28;21069;-88
2023/01/05 09:34:15;;;;;;;1.40;0.40;;;14.80;79.40;14.90;96906.00;;;;5038484;28;21146;-87
2023/01/05 09:36:42;;;;;;;0.47;0.30;;;14.80;79.30;14.90;96915.00;;;;5035551;28;20259;-87
2023/01/05 09:39:10;;;;;;;3.37;0.40;;;14.80;79.40;14.90;96916.00;;;;5035214;28;20212;-88
2023/01/05 09:41:43;;;;;;;0.47;0.27;;;14.80;79.40;14.90;96911.00;;;;5037073;28;20305;-87
2023/01/05 09:44:26;;;;;;;4.03;0.80;;;14.80;79.50;15.00;96923.00;;;;5036060;28;20231;-88
2023/01/05 09:47:00;;;;;;;1.13;0.30;;;14.80;79.60;15.00;96932.00;;;;5036138;28;20729;-88
2023/01/05 09:49:30;;;;;;;0.30;0.30;;;14.80;79.70;15.00;96928.00;;;;5037838;28;20209;-86
2023/01/05 09:52:02;;;;;;;2.13;0.33;;;14.80;79.70;15.00;96934.00;;;;5035451;28;20277;-87
2023/01/05 09:54:33;;;;;;;0.87;0.87;;;14.80;79.50;15.00;96928.00;;;;5036477;28;20240;-87
2023/01/05 09:57:02;;;;;;;0.60;0.60;;;14.80;79.30;15.00;96929.00;;;;5038842;28;20221;-87
2023/01/05 09:59:34;;;;;;;0.73;0.60;;;14.80;79.30;14.90;96936.00;;;;5034486;28;20243;-87
2023/01/05 10:02:17;;;;;;;1.00;0.87;;;14.80;79.50;14.90;96939.00;;;;5036633;28;20282;-87
2023/01/05 10:04:45;;;;;;;12.10;1.33;;;14.80;79.60;14.90;96928.00;;;;5037421;28;20220;-87
2023/01/05 10:07:26;;;;;;;4.43;1.03;;;14.80;79.50;14.90;96934.00;;;;5034057;28;20288;-88
2023/01/05 10:09:58;;;;;;;3.17;1.07;;;14.80;79.60;14.90;96931.00;;;;5035981;28;20209;-88
2023/01/05 10:15:30;;;;;;;2.50;0.90;;;14.80;79.50;15.00;96945.00;;;;5034228;28;20223;-88
2023/01/05 10:18:02;;;;;;;0.40;0.40;;;14.80;79.50;15.00;96956.00;;;;5035692;28;20319;-88
2023/01/05 10:20:45;;;;;;;2.33;0.50;;;14.80;79.60;15.00;96946.00;;;;5037852;28;20292;-88
2023/01/05 10:23:29;;;;;;;0.77;0.63;;;14.80;79.10;15.00;96947.00;;;;5035832;28;20291;-88
2023/01/05 10:26:05;;;;;;;1.73;0.70;;;14.80;79.00;15.00;96950.00;;;;5037097;28;20247;-88
2023/01/05 10:28:42;;;;;;;2.77;0.80;;;14.80;78.90;14.90;96949.00;;;;5036008;28;20232;-88
2023/01/05 10:31:23;;;;;;;1.10;0.50;;;14.80;78.80;14.90;96949.00;;;;5037371;28;20209;-88
2023/01/05 10:33:59;;;;;;;1.37;0.87;;;14.80;78.70;14.90;96957.00;;;;5033774;28;20717;-88
2023/01/05 10:36:50;;;;;;;0.93;0.63;;;14.80;78.60;14.90;96950.00;;;;5034186;28;20201;-88
2023/01/05 10:39:29;;;;;;;0.90;0.77;;;14.80;78.50;14.90;96950.00;;;;5036502;28;20467;-87
2023/01/05 10:42:05;;;;;;;0.90;0.60;;;14.80;78.50;14.90;96955.00;;;;5037230;28;20216;-88
2023/01/05 10:44:55;;;;;;;1.70;0.60;;;14.80;78.50;14.80;96947.00;;;;5034645;28;20303;-86
2023/01/05 10:47:25;;;;;;;1.43;0.97;;;14.70;78.20;14.90;96948.00;;;;5034183;28;20257;-86
2023/01/05 10:49:54;;;;;;;4.63;1.37;;;14.80;78.40;14.80;96952.00;;;;5034954;28;20729;-86
2023/01/05 10:52:23;;;;;;;1.47;0.77;;;14.70;78.40;14.80;96949.00;;;;5036505;28;20232;-88
2023/01/05 10:54:57;;;;;;;1.70;0.90;;;14.70;78.20;14.80;96941.00;;;;5037404;28;20248;-86
2023/01/05 10:57:39;;;;;;;1.00;0.67;;;14.70;78.00;14.80;96940.00;;;;5034713;28;20234;-87
2023/01/05 11:00:13;;;;;;;1.87;0.60;;;14.70;78.00;14.80;96940.00;;;;5035258;28;20295;-86
2023/01/05 11:02:48;;;;;;;2.63;0.70;;;14.70;78.10;14.80;96926.00;;;;5036912;28;20312;-86
2023/01/05 11:05:27;;;;;;;3.47;0.80;;;14.70;78.20;14.80;96931.00;;;;5033447;28;20236;-86
2023/01/05 11:07:59;;;;;;;1.70;0.80;;;14.70;78.20;14.80;96932.00;;;;5036615;28;20251;-86
2023/01/05 11:10:31;;;;;;;1.90;0.70;;;14.70;78.20;14.80;96931.00;;;;5034879;28;20201;-86
2023/01/05 11:13:17;;;;;;;3.47;0.63;;;14.70;78.10;14.80;96942.00;;;;5035272;28;20228;-86
2023/01/05 11:15:53;;;;;;;3.17;0.73;;;14.70;78.10;14.80;96941.00;;;;5036289;28;20221;-86
2023/01/05 11:18:37;;;;;;;0.70;0.60;;;14.70;78.20;14.70;96939.00;;;;5034675;28;20816;-86
2023/01/05 11:21:16;;;;;;;0.73;0.60;;;14.70;78.20;14.70;96943.00;;;;5036227;28;20204;-86
2023/01/05 11:23:45;;;;;;;11.13;1.27;;;14.70;78.20;14.80;96943.00;;;;5036052;28;20554;-86
2023/01/05 11:26:33;;;;;;;1.93;0.90;;;14.70;78.40;14.70;96940.00;;;;5034601;28;20628;-86
2023/01/05 11:29:09;;;;;;;1.27;0.80;;;14.70;78.60;14.80;96934.00;;;;5034488;28;20232;-87
2023/01/05 11:31:41;;;;;;;1.70;0.80;;;14.60;78.70;14.80;96925.00;;;;5030205;28;20277;-87
2023/01/05 11:34:32;;;;;;;1.93;0.70;;;14.70;78.80;14.80;96928.00;;;;5031526;28;20217;-86
2023/01/05 11:37:07;;;;;;;0.70;0.70;;;14.70;78.90;14.90;96930.00;;;;5022047;28;20311;-87
2023/01/05 11:39:40;;;;;;;0.67;0.60;;;14.70;78.90;14.90;96930.00;;;;5033842;28;20204;-87
2023/01/05 11:42:13;;;;;;;1.90;0.90;;;14.70;78.90;14.90;96929.00;;;;5036338;28;20243;-87
2023/01/05 11:44:44;;;;;;;1.80;0.70;;;14.70;78.90;15.00;96931.00;;;;5033584;28;20303;-88
2023/01/05 11:47:24;;;;;;;1.70;0.73;;;14.80;79.20;15.00;96927.00;;;;5037452;28;20207;-87